IBE79L LEBL-GCLA
Flight info
| Callsign | IBE79L |
|---|---|
| Flight time | N/A |
| Altitude | 33000 |
| Route | LOTOS DCT TORDU DCT DIKUT DCT SOPET DCT VLC DCT SERRA DCT ASTRO DCT POBOS DCT XEBAR DCT YES DCT BLN DCT KUKAL DCT ALCOL DCT VULPE DCT AMOTA DCT SVL DCT PIMUR DCT ONUBA DCT NAPES DCT OSLEP DCT MINTA DCT BEXAL UN866 KONBA |
| Aircraft | A321/M-SDE3FGHIRWY/LB1 |
Departure
| Time | N/A |
|---|---|
| Airport | Josep Tarradellas Barcelona-El Prat Airport (LEBL) |
Arrival
| Time | 2026-05-07 11:22 |
|---|---|
| Airport | La Palma Airport (GCLA) |
| Time | Latitude | Longitude | Altitude | Speed | Heading |
|---|---|---|---|---|---|
| 2026-05-07 11:15 | 28.43084 | -17.60667 | 6696 ft | 258 kts | 269° |
| 2026-05-07 11:16 | 28.43051 | -17.62626 | 6403 ft | 239 kts | 269° |
| 2026-05-07 11:16 | 28.43021 | -17.64447 | 6098 ft | 223 kts | 269° |
| 2026-05-07 11:16 | 28.42993 | -17.66156 | 5790 ft | 210 kts | 270° |
| 2026-05-07 11:16 | 28.42969 | -17.67765 | 5814 ft | 186 kts | 270° |
| 2026-05-07 11:17 | 28.42945 | -17.69280 | 5429 ft | 201 kts | 269° |
| 2026-05-07 11:17 | 28.42895 | -17.70928 | 4379 ft | 221 kts | 268° |
| 2026-05-07 11:17 | 28.42937 | -17.72688 | 3821 ft | 213 kts | 283° |
| 2026-05-07 11:17 | 28.43637 | -17.74056 | 3234 ft | 199 kts | 326° |
| 2026-05-07 11:18 | 28.44893 | -17.74534 | 2930 ft | 176 kts | 352° |
| 2026-05-07 11:18 | 28.46094 | -17.74651 | 3025 ft | 170 kts | 356° |
| 2026-05-07 11:18 | 28.47259 | -17.74726 | 3117 ft | 166 kts | 357° |
| 2026-05-07 11:18 | 28.48409 | -17.74819 | 3221 ft | 166 kts | 353° |
| 2026-05-07 11:19 | 28.49558 | -17.74979 | 3057 ft | 165 kts | 353° |
| 2026-05-07 11:19 | 28.50681 | -17.75179 | 2876 ft | 165 kts | 351° |
| 2026-05-07 11:19 | 28.51816 | -17.75364 | 2636 ft | 165 kts | 353° |
| 2026-05-07 11:19 | 28.52953 | -17.75465 | 2245 ft | 161 kts | 359° |
| 2026-05-07 11:20 | 28.54047 | -17.75451 | 1949 ft | 154 kts | 2° |
| 2026-05-07 11:20 | 28.55097 | -17.75483 | 1663 ft | 149 kts | 358° |
| 2026-05-07 11:20 | 28.56127 | -17.75493 | 1342 ft | 149 kts | 2° |
| 2026-05-07 11:20 | 28.57170 | -17.75499 | 996 ft | 150 kts | 360° |
| 2026-05-07 11:21 | 28.58194 | -17.75507 | 797 ft | 142 kts | 359° |
| 2026-05-07 11:21 | 28.59186 | -17.75489 | 662 ft | 142 kts | 358° |
| 2026-05-07 11:21 | 28.60163 | -17.75522 | 473 ft | 140 kts | 358° |
| 2026-05-07 11:21 | 28.61139 | -17.75529 | 283 ft | 139 kts | 358° |
| 2026-05-07 11:22 | 28.62090 | -17.75546 | 115 ft | 131 kts | 359° |
| 2026-05-07 11:22 | 28.62612 | -17.75561 | 108 ft | 89 kts | 358° |
| 2026-05-07 11:22 | 28.62823 | -17.75564 | 101 ft | 6 kts | 11° |
| 2026-05-07 11:22 | 28.62837 | -17.75556 | 101 ft | 3 kts | 33° |
| 2026-05-07 11:23 | 28.62850 | -17.75555 | 100 ft | 1 kts | 330° |
| 2026-05-07 11:23 | 28.62848 | -17.75568 | 100 ft | 2 kts | 252° |
| 2026-05-07 11:23 | 28.62815 | -17.75567 | 100 ft | 11 kts | 172° |
| 2026-05-07 11:23 | 28.62722 | -17.75558 | 104 ft | 13 kts | 176° |
| 2026-05-07 11:24 | 28.62654 | -17.75532 | 107 ft | 8 kts | 137° |
| 2026-05-07 11:24 | 28.62623 | -17.75497 | 109 ft | 5 kts | 137° |
| 2026-05-07 11:24 | 28.62597 | -17.75472 | 110 ft | 6 kts | 141° |
| 2026-05-07 11:24 | 28.62508 | -17.75445 | 111 ft | 12 kts | 181° |
| 2026-05-07 11:25 | 28.62428 | -17.75446 | 111 ft | 10 kts | 179° |
| 2026-05-07 11:25 | 28.62369 | -17.75445 | 114 ft | 8 kts | 179° |
| 2026-05-07 11:25 | 28.62313 | -17.75444 | 114 ft | 7 kts | 179° |
| 2026-05-07 11:25 | 28.62264 | -17.75443 | 114 ft | 7 kts | 179° |
| 2026-05-07 11:26 | 28.62246 | -17.75418 | 113 ft | 4 kts | 97° |
| 2026-05-07 11:26 | 28.62246 | -17.75390 | 114 ft | 3 kts | 89° |
| 2026-05-07 11:26 | 28.62246 | -17.75368 | 114 ft | 2 kts | 88° |
| 2026-05-07 11:26 | 28.62246 | -17.75364 | 114 ft | 0 kts | 88° |